createdAt,value
2018-07-30T00:00:09.320Z,5.08
2018-07-30T00:02:43.808Z,4.87
2018-07-30T00:05:13.333Z,5.40
2018-07-30T00:07:43.088Z,5.77
2018-07-30T00:10:12.529Z,5.63
2018-07-30T00:12:41.935Z,5.20
2018-07-30T00:15:11.380Z,6.07
2018-07-30T00:17:40.784Z,5.50
2018-07-30T00:20:10.215Z,5.60
2018-07-30T00:22:39.650Z,5.63
2018-07-30T00:25:09.618Z,5.90
2018-07-30T00:27:38.794Z,5.83
2018-07-30T00:30:08.900Z,5.83
2018-07-30T00:32:38.304Z,5.77
2018-07-30T00:35:07.961Z,6.80
2018-07-30T00:37:37.384Z,6.10
2018-07-30T00:40:09.287Z,4.80
2018-07-30T00:42:38.691Z,5.00
2018-07-30T00:45:08.090Z,4.37
2018-07-30T00:47:37.481Z,4.93
2018-07-30T00:50:06.875Z,4.73
2018-07-30T00:52:36.315Z,4.40
2018-07-30T00:55:05.791Z,5.43
2018-07-30T00:57:35.452Z,5.07
2018-07-30T01:00:06.342Z,5.37
2018-07-30T01:02:35.707Z,5.30
2018-07-30T01:05:05.657Z,5.50
2018-07-30T01:07:35.051Z,5.30
2018-07-30T01:10:05.801Z,5.60
2018-07-30T01:12:35.229Z,5.80
2018-07-30T01:15:04.637Z,6.27
2018-07-30T01:17:34.076Z,5.83
2018-07-30T01:20:03.553Z,5.07
2018-07-30T01:22:32.966Z,5.40
2018-07-30T01:25:02.407Z,5.50
2018-07-30T01:27:31.860Z,5.87
2018-07-30T01:30:01.330Z,5.70
2018-07-30T01:32:30.751Z,5.70
2018-07-30T01:34:59.904Z,5.13
2018-07-30T01:37:29.345Z,5.70
2018-07-30T01:39:58.510Z,5.20
2018-07-30T01:42:27.972Z,5.57
2018-07-30T01:44:57.372Z,5.77
2018-07-30T01:47:26.812Z,6.17
2018-07-30T01:49:56.226Z,6.10
2018-07-30T01:52:25.667Z,6.37
2018-07-30T01:54:54.826Z,6.40
2018-07-30T01:57:24.276Z,6.10
2018-07-30T01:59:53.743Z,6.20
2018-07-30T02:02:23.181Z,5.60
2018-07-30T02:04:52.635Z,6.30
2018-07-30T02:07:22.103Z,6.77
2018-07-30T02:09:51.568Z,5.93
2018-07-30T02:12:21.020Z,5.75
2018-07-30T02:14:50.400Z,5.87
2018-07-30T02:17:19.787Z,5.83
2018-07-30T02:19:49.163Z,5.93
2018-07-30T02:22:18.512Z,6.23
2018-07-30T02:24:47.858Z,6.53
2018-07-30T02:27:17.211Z,5.93
2018-07-30T02:29:46.670Z,5.73
2018-07-30T02:32:16.081Z,5.72
2018-07-30T02:34:45.474Z,5.40
2018-07-30T02:37:14.953Z,5.47
2018-07-30T02:39:44.391Z,5.20
2018-07-30T02:42:13.796Z,5.80
2018-07-30T02:44:43.179Z,5.47
2018-07-30T02:47:12.597Z,5.20
2018-07-30T02:49:42.009Z,6.07
2018-07-30T02:52:11.411Z,5.53
2018-07-30T02:54:40.830Z,5.90
2018-07-30T02:57:09.963Z,5.37
2018-07-30T02:59:39.375Z,5.27
2018-07-30T03:02:09.248Z,5.87
2018-07-30T03:04:38.646Z,5.13
2018-07-30T03:07:08.067Z,6.40
2018-07-30T03:09:37.452Z,6.07
2018-07-30T03:12:06.875Z,6.70
2018-07-30T03:14:36.275Z,5.67
2018-07-30T03:17:05.675Z,5.90
2018-07-30T03:19:35.028Z,5.70
2018-07-30T03:22:04.403Z,7.00
2018-07-30T03:24:33.771Z,6.60
2018-07-30T03:27:03.165Z,5.97
2018-07-30T03:29:32.531Z,5.93
2018-07-30T03:32:01.901Z,6.23
2018-07-30T03:34:31.269Z,6.10
2018-07-30T03:37:00.349Z,6.43
2018-07-30T03:39:29.461Z,6.33
2018-07-30T03:41:58.795Z,5.77
2018-07-30T03:44:28.201Z,6.10
2018-07-30T03:46:57.591Z,6.00
2018-07-30T03:49:26.981Z,6.03
2018-07-30T03:51:56.370Z,6.67
2018-07-30T03:54:25.759Z,6.40
2018-07-30T03:56:54.987Z,5.80
2018-07-30T03:59:24.603Z,5.97
2018-07-30T04:01:53.985Z,5.80
2018-07-30T04:04:23.349Z,5.85
2018-07-30T04:06:52.752Z,6.73
2018-07-30T04:09:22.094Z,6.43
2018-07-30T04:11:51.449Z,6.97
2018-07-30T04:14:20.803Z,6.45
2018-07-30T04:16:52.131Z,6.60
2018-07-30T04:19:22.078Z,7.37
2018-07-30T04:21:51.439Z,7.17
2018-07-30T04:24:20.832Z,7.03
2018-07-30T04:26:49.923Z,8.20
2018-07-30T04:29:19.038Z,8.30
2018-07-30T04:31:48.391Z,8.57
2018-07-30T04:34:17.760Z,8.43
2018-07-30T04:36:47.113Z,8.50
2018-07-30T04:39:16.473Z,7.80
2018-07-30T04:41:45.834Z,8.90
2018-07-30T04:44:14.955Z,8.10
2018-07-30T04:46:44.311Z,7.43
2018-07-30T04:49:13.696Z,7.30
2018-07-30T04:51:43.022Z,7.50
2018-07-30T04:54:12.138Z,6.77
2018-07-30T04:56:41.483Z,7.70
2018-07-30T04:59:10.831Z,6.93
2018-07-30T05:01:40.196Z,7.10
2018-07-30T05:04:09.623Z,7.23
2018-07-30T05:06:39.000Z,7.70
2018-07-30T05:09:09.312Z,7.57
2018-07-30T05:11:38.686Z,7.67
2018-07-30T05:14:08.716Z,7.67
2018-07-30T05:16:38.119Z,8.37
2018-07-30T05:19:07.582Z,8.77
2018-07-30T05:21:36.953Z,8.03
2018-07-30T05:24:06.299Z,9.73
2018-07-30T05:26:35.666Z,9.87
2018-07-30T05:29:05.051Z,10.10
2018-07-30T05:31:34.467Z,9.63
2018-07-30T05:34:03.815Z,10.15
2018-07-30T05:36:33.183Z,9.17
2018-07-30T05:39:02.550Z,9.47
2018-07-30T05:41:31.924Z,9.13
2018-07-30T05:44:01.288Z,9.17
2018-07-30T05:46:30.676Z,10.57
2018-07-30T05:49:00.041Z,10.80
2018-07-30T05:51:29.423Z,11.50
2018-07-30T05:53:58.817Z,10.60
2018-07-30T05:56:28.191Z,10.53
2018-07-30T05:58:57.564Z,11.23
2018-07-30T06:01:26.944Z,11.43
2018-07-30T06:03:56.541Z,11.53
2018-07-30T06:06:25.932Z,13.53
2018-07-30T06:08:55.325Z,13.20
2018-07-30T06:11:24.434Z,12.37
2018-07-30T06:13:53.821Z,12.17
2018-07-30T06:16:22.943Z,11.03
2018-07-30T06:18:52.603Z,10.37
2018-07-30T06:21:21.978Z,10.60
2018-07-30T06:23:51.385Z,10.03
2018-07-30T06:26:20.797Z,9.87
2018-07-30T06:28:50.110Z,10.23
2018-07-30T06:31:19.485Z,11.83
2018-07-30T06:33:48.886Z,10.43
2018-07-30T06:36:18.261Z,9.73
2018-07-30T06:38:47.613Z,8.97
2018-07-30T06:41:17.012Z,9.07
2018-07-30T06:43:46.392Z,8.20
2018-07-30T06:46:15.768Z,7.12
2018-07-30T06:48:45.119Z,7.57
2018-07-30T06:51:14.500Z,7.67
2018-07-30T06:53:43.891Z,7.07
2018-07-30T06:56:13.265Z,7.87
2018-07-30T06:58:42.649Z,8.07
2018-07-30T07:01:11.763Z,8.33
2018-07-30T07:03:41.155Z,7.43
2018-07-30T07:06:10.514Z,7.87
2018-07-30T07:08:39.900Z,8.17
2018-07-30T07:11:09.282Z,8.93
2018-07-30T07:13:38.663Z,8.97
2018-07-30T07:16:08.635Z,9.13
2018-07-30T07:18:38.041Z,8.77
2018-07-30T07:21:07.733Z,8.83
2018-07-30T07:23:37.200Z,9.13
2018-07-30T07:26:06.625Z,9.23
2018-07-30T07:28:35.982Z,8.90
2018-07-30T07:31:05.099Z,8.07
2018-07-30T07:33:34.487Z,8.50
2018-07-30T07:36:03.871Z,7.87
2018-07-30T07:38:33.252Z,6.90
2018-07-30T07:41:02.619Z,7.00
2018-07-30T07:43:31.988Z,6.33
2018-07-30T07:46:01.127Z,6.10
2018-07-30T07:48:30.554Z,6.67
2018-07-30T07:51:00.064Z,6.33
2018-07-30T07:53:29.274Z,6.30
2018-07-30T07:55:58.642Z,7.40
2018-07-30T07:58:28.048Z,6.40
2018-07-30T08:00:57.608Z,6.30
2018-07-30T08:03:27.047Z,6.40
2018-07-30T08:05:56.412Z,6.07
2018-07-30T08:08:25.774Z,5.72
2018-07-30T08:10:55.127Z,5.80
2018-07-30T08:13:24.498Z,5.80
2018-07-30T08:15:53.621Z,5.57
2018-07-30T08:18:23.000Z,5.50
2018-07-30T08:20:52.116Z,5.30
2018-07-30T08:23:21.516Z,5.30
2018-07-30T08:25:50.900Z,5.33
2018-07-30T08:28:20.015Z,5.77
2018-07-30T08:30:49.380Z,5.53
2018-07-30T08:33:18.785Z,4.77
2018-07-30T08:35:48.164Z,5.50
2018-07-30T08:38:17.635Z,5.45
2018-07-30T08:40:47.058Z,5.07
2018-07-30T08:43:16.428Z,5.17
2018-07-30T08:45:45.782Z,5.10
2018-07-30T08:48:15.152Z,4.87
2018-07-30T08:50:44.515Z,4.37
2018-07-30T08:53:14.258Z,4.73
2018-07-30T08:55:43.635Z,4.53
2018-07-30T08:58:13.016Z,4.37
2018-07-30T09:00:42.400Z,5.20
2018-07-30T09:03:11.777Z,5.17
2018-07-30T09:05:41.132Z,5.12
2018-07-30T09:08:10.491Z,5.10
2018-07-30T09:10:39.884Z,4.97
2018-07-30T09:13:09.249Z,5.47
2018-07-30T09:15:38.634Z,4.85
2018-07-30T09:18:08.799Z,4.92
2018-07-30T09:20:38.126Z,5.30
2018-07-30T09:23:07.488Z,4.45
2018-07-30T09:25:36.863Z,4.75
2018-07-30T09:28:06.485Z,4.47
2018-07-30T09:30:35.849Z,5.40
2018-07-30T09:33:05.243Z,4.67
2018-07-30T09:35:34.579Z,4.65
2018-07-30T09:38:03.984Z,4.72
2018-07-30T09:40:33.350Z,4.78
2018-07-30T09:43:02.725Z,4.40
2018-07-30T09:45:32.091Z,3.75
2018-07-30T09:48:01.464Z,4.65
2018-07-30T09:50:30.848Z,4.20
2018-07-30T09:53:00.179Z,4.53
2018-07-30T09:55:29.603Z,4.50
2018-07-30T09:57:58.951Z,4.70
2018-07-30T10:00:33.611Z,4.58
2018-07-30T10:03:02.724Z,4.50
2018-07-30T10:05:32.094Z,4.47
2018-07-30T10:08:01.219Z,4.30
2018-07-30T10:10:30.616Z,4.17
2018-07-30T10:12:59.984Z,3.47
2018-07-30T10:15:29.360Z,3.40
2018-07-30T10:17:58.867Z,3.72
2018-07-30T10:20:28.162Z,3.60
2018-07-30T10:22:57.525Z,3.87
2018-07-30T10:25:26.913Z,3.75
2018-07-30T10:27:56.288Z,3.60
2018-07-30T10:30:25.655Z,3.75
2018-07-30T10:32:55.002Z,3.00
2018-07-30T10:35:24.461Z,3.52
2018-07-30T10:37:53.838Z,3.45
2018-07-30T10:40:23.165Z,3.10
2018-07-30T10:42:52.559Z,3.80
2018-07-30T10:45:21.933Z,3.47
2018-07-30T10:47:51.038Z,3.50
2018-07-30T10:50:21.411Z,3.40
2018-07-30T10:52:50.781Z,3.50
2018-07-30T10:55:20.161Z,3.10
2018-07-30T10:57:49.523Z,3.70
2018-07-30T11:00:19.922Z,3.50
2018-07-30T11:02:49.299Z,2.98
2018-07-30T11:05:18.660Z,3.45
2018-07-30T11:07:48.090Z,3.83
2018-07-30T11:10:17.416Z,3.50
2018-07-30T11:12:46.786Z,3.25
2018-07-30T11:15:15.896Z,3.17
2018-07-30T11:17:45.272Z,3.40
2018-07-30T11:20:14.391Z,3.67
2018-07-30T11:22:43.764Z,3.60
2018-07-30T11:25:13.128Z,3.45
2018-07-30T11:27:42.608Z,3.37
2018-07-30T11:30:11.980Z,3.80
2018-07-30T11:32:41.094Z,3.75
2018-07-30T11:35:10.459Z,3.05
2018-07-30T11:37:39.855Z,3.72
2018-07-30T11:40:09.341Z,3.02
2018-07-30T11:42:38.726Z,3.25
2018-07-30T11:45:08.096Z,2.98
2018-07-30T11:47:37.228Z,3.50
2018-07-30T11:50:06.603Z,3.35
2018-07-30T11:52:35.980Z,3.10
2018-07-30T11:55:05.398Z,3.65
2018-07-30T11:57:34.534Z,3.10
2018-07-30T12:00:03.938Z,3.10
2018-07-30T12:02:33.328Z,2.67
2018-07-30T12:05:02.707Z,3.02
2018-07-30T12:07:32.078Z,3.47
2018-07-30T12:10:01.442Z,3.50
2018-07-30T12:12:30.812Z,3.27
2018-07-30T12:15:00.201Z,3.27
2018-07-30T12:17:29.602Z,3.27
2018-07-30T12:19:58.727Z,3.20
2018-07-30T12:22:28.086Z,3.08
2018-07-30T12:24:57.451Z,3.45
2018-07-30T12:27:26.835Z,4.00
2018-07-30T12:29:56.197Z,3.60
2018-07-30T12:32:25.583Z,3.30
2018-07-30T12:34:54.945Z,3.27
2018-07-30T12:37:24.306Z,3.33
2018-07-30T12:39:53.418Z,3.27
2018-07-30T12:42:22.796Z,3.47
2018-07-30T12:44:52.205Z,3.47
2018-07-30T12:47:21.536Z,2.70
2018-07-30T12:49:50.916Z,3.08
2018-07-30T12:52:20.282Z,3.65
2018-07-30T12:54:49.667Z,3.22
2018-07-30T12:57:19.051Z,3.20
2018-07-30T12:59:48.440Z,3.17
2018-07-30T13:02:17.809Z,3.17
2018-07-30T13:04:47.658Z,3.20
2018-07-30T13:07:17.045Z,3.70
2018-07-30T13:09:46.163Z,3.37
2018-07-30T13:12:15.588Z,3.30
2018-07-30T13:14:44.964Z,3.20
2018-07-30T13:17:14.337Z,3.37
2018-07-30T13:19:43.705Z,2.95
2018-07-30T13:22:13.094Z,3.10
2018-07-30T13:24:42.459Z,3.17
2018-07-30T13:27:11.841Z,3.40
2018-07-30T13:29:40.978Z,3.33
2018-07-30T13:32:10.370Z,3.10
2018-07-30T13:34:39.747Z,3.40
2018-07-30T13:37:09.134Z,3.40
2018-07-30T13:39:38.489Z,3.47
2018-07-30T13:42:09.090Z,3.08
2018-07-30T13:44:38.537Z,3.35
2018-07-30T13:47:07.899Z,3.17
2018-07-30T13:49:37.279Z,3.40
2018-07-30T13:52:06.631Z,3.50
2018-07-30T13:54:36.012Z,3.47
2018-07-30T13:57:05.362Z,3.40
2018-07-30T13:59:34.761Z,3.40
2018-07-30T14:02:04.140Z,3.45
2018-07-30T14:04:33.509Z,3.27
2018-07-30T14:07:02.894Z,3.33
2018-07-30T14:09:31.994Z,3.25
2018-07-30T14:12:01.402Z,3.47
2018-07-30T14:14:30.747Z,3.37
2018-07-30T14:17:00.112Z,3.45
2018-07-30T14:19:29.493Z,3.05
2018-07-30T14:21:58.602Z,3.08
2018-07-30T14:24:27.975Z,3.40
2018-07-30T14:26:57.357Z,3.42
2018-07-30T14:29:26.724Z,3.50
2018-07-30T14:31:56.092Z,3.83
2018-07-30T14:34:25.209Z,3.08
2018-07-30T14:36:54.582Z,3.30
2018-07-30T14:39:23.700Z,3.12
2018-07-30T14:41:53.076Z,3.17
2018-07-30T14:44:22.451Z,3.67
2018-07-30T14:46:51.834Z,3.30
2018-07-30T14:49:21.177Z,3.62
2018-07-30T14:51:50.580Z,3.67
2018-07-30T14:54:19.940Z,3.33
2018-07-30T14:56:49.304Z,3.17
2018-07-30T14:59:18.826Z,3.33
2018-07-30T15:01:48.147Z,3.85
2018-07-30T15:04:17.539Z,3.72
2018-07-30T15:06:46.904Z,3.75
2018-07-30T15:09:16.021Z,3.33
2018-07-30T15:11:45.422Z,3.45
2018-07-30T15:14:14.784Z,3.90
2018-07-30T15:16:44.173Z,3.50
2018-07-30T15:19:13.619Z,3.70
2018-07-30T15:21:42.923Z,3.58
2018-07-30T15:24:12.275Z,3.75
2018-07-30T15:26:41.659Z,4.10
2018-07-30T15:29:11.012Z,3.52
2018-07-30T15:31:40.386Z,3.17
2018-07-30T15:34:09.746Z,3.55
2018-07-30T15:36:39.125Z,3.52
2018-07-30T15:39:10.786Z,3.47
2018-07-30T15:41:40.256Z,3.58
2018-07-30T15:44:09.627Z,3.75
2018-07-30T15:46:39.030Z,4.15
2018-07-30T15:49:08.387Z,3.72
2018-07-30T15:51:37.751Z,3.52
2018-07-30T15:54:07.128Z,3.98
2018-07-30T15:56:36.489Z,3.85
2018-07-30T15:59:05.983Z,3.60
2018-07-30T16:01:35.116Z,3.35
2018-07-30T16:04:04.488Z,4.10
2018-07-30T16:06:33.590Z,4.00
2018-07-30T16:09:02.964Z,3.62
2018-07-30T16:11:32.331Z,3.50
2018-07-30T16:14:01.702Z,3.40
2018-07-30T16:16:31.055Z,4.10
2018-07-30T16:19:00.416Z,3.27
2018-07-30T16:21:29.787Z,3.58
2018-07-30T16:23:59.172Z,3.40
2018-07-30T16:26:28.534Z,3.55
2018-07-30T16:28:57.925Z,3.70
2018-07-30T16:31:27.283Z,3.62
2018-07-30T16:33:56.666Z,3.50
2018-07-30T16:36:26.063Z,3.58
2018-07-30T16:38:55.423Z,3.62
2018-07-30T16:41:25.253Z,3.90
2018-07-30T16:43:54.632Z,3.60
2018-07-30T16:46:24.007Z,3.33
2018-07-30T16:48:53.246Z,3.62
2018-07-30T16:51:22.625Z,3.92
2018-07-30T16:53:52.009Z,3.85
2018-07-30T16:56:21.382Z,3.67
2018-07-30T16:58:50.807Z,3.58
2018-07-30T17:01:20.211Z,3.45
2018-07-30T17:03:49.600Z,3.85
2018-07-30T17:06:19.029Z,3.20
2018-07-30T17:08:48.403Z,3.50
2018-07-30T17:11:17.788Z,3.30
2018-07-30T17:13:47.162Z,3.42
2018-07-30T17:16:16.523Z,3.95
2018-07-30T17:18:45.890Z,3.25
2018-07-30T17:21:15.299Z,3.20
2018-07-30T17:23:44.689Z,3.72
2018-07-30T17:26:14.056Z,3.52
2018-07-30T17:28:43.436Z,3.42
2018-07-30T17:31:12.538Z,3.72
2018-07-30T17:33:41.650Z,3.60
2018-07-30T17:36:11.011Z,3.45
2018-07-30T17:38:41.206Z,3.70
2018-07-30T17:41:10.579Z,3.92
2018-07-30T17:43:39.959Z,3.80
2018-07-30T17:46:09.444Z,3.60
2018-07-30T17:48:38.821Z,3.05
2018-07-30T17:51:08.198Z,3.60
2018-07-30T17:53:37.562Z,3.62
2018-07-30T17:56:06.678Z,3.50
2018-07-30T17:58:36.076Z,3.60
2018-07-30T18:01:05.444Z,3.72
2018-07-30T18:03:34.813Z,3.37
2018-07-30T18:06:04.188Z,3.50
2018-07-30T18:08:33.564Z,3.35
2018-07-30T18:11:02.703Z,3.60
2018-07-30T18:13:32.067Z,4.00
2018-07-30T18:16:01.196Z,3.58
2018-07-30T18:18:30.569Z,3.90
2018-07-30T18:20:59.706Z,4.35
2018-07-30T18:23:29.131Z,4.03
2018-07-30T18:25:58.472Z,4.53
2018-07-30T18:28:27.619Z,3.87
2018-07-30T18:30:56.971Z,4.47
2018-07-30T18:33:26.343Z,3.80
2018-07-30T18:35:55.729Z,4.50
2018-07-30T18:38:25.187Z,4.15
2018-07-30T18:40:54.553Z,4.05
2018-07-30T18:43:23.911Z,3.87
2018-07-30T18:45:53.289Z,4.20
2018-07-30T18:48:22.639Z,3.92
2018-07-30T18:50:52.013Z,3.77
2018-07-30T18:53:21.374Z,3.70
2018-07-30T18:55:51.776Z,4.05
2018-07-30T18:58:21.143Z,3.35
2018-07-30T19:00:50.530Z,3.70
2018-07-30T19:03:19.911Z,3.75
2018-07-30T19:05:49.019Z,3.87
2018-07-30T19:08:18.372Z,3.57
2018-07-30T19:10:47.791Z,3.40
2018-07-30T19:13:17.135Z,4.08
2018-07-30T19:15:46.528Z,3.90
2018-07-30T19:18:16.271Z,3.80
2018-07-30T19:20:45.619Z,4.30
2018-07-30T19:23:14.716Z,3.95
2018-07-30T19:25:44.104Z,3.98
2018-07-30T19:28:13.460Z,4.05
2018-07-30T19:30:42.861Z,3.92
2018-07-30T19:33:12.601Z,4.15
2018-07-30T19:35:42.036Z,3.98
2018-07-30T19:38:11.146Z,3.55
2018-07-30T19:40:40.872Z,4.50
2018-07-30T19:43:10.237Z,3.87
2018-07-30T19:45:39.841Z,4.05
2018-07-30T19:48:09.361Z,3.70
2018-07-30T19:50:38.999Z,3.72
2018-07-30T19:53:08.392Z,4.30
2018-07-30T19:55:37.902Z,3.98
2018-07-30T19:58:07.645Z,4.00
2018-07-30T20:00:36.627Z,4.33
2018-07-30T20:03:06.052Z,4.30
2018-07-30T20:05:35.442Z,4.03
2018-07-30T20:08:04.839Z,4.35
2018-07-30T20:10:34.303Z,3.80
2018-07-30T20:13:03.710Z,3.77
2018-07-30T20:15:33.093Z,3.85
2018-07-30T20:18:02.540Z,3.85
2018-07-30T20:20:31.833Z,3.90
2018-07-30T20:23:02.075Z,3.70
2018-07-30T20:25:31.485Z,4.15
2018-07-30T20:28:00.812Z,3.67
2018-07-30T20:30:30.191Z,4.50
2018-07-30T20:32:59.555Z,4.35
2018-07-30T20:35:28.927Z,4.30
2018-07-30T20:37:58.299Z,4.17
2018-07-30T20:40:27.670Z,3.98
2018-07-30T20:42:57.037Z,4.03
2018-07-30T20:45:26.407Z,4.58
2018-07-30T20:47:55.755Z,4.58
2018-07-30T20:50:25.117Z,3.92
2018-07-30T20:52:54.492Z,4.50
2018-07-30T20:55:23.855Z,4.37
2018-07-30T20:57:53.216Z,3.62
2018-07-30T21:00:22.606Z,4.10
2018-07-30T21:02:51.972Z,4.28
2018-07-30T21:05:21.328Z,3.70
2018-07-30T21:07:50.493Z,4.10
2018-07-30T21:10:19.858Z,3.87
2018-07-30T21:12:49.224Z,4.08
2018-07-30T21:15:18.583Z,4.00
2018-07-30T21:17:47.952Z,3.72
2018-07-30T21:20:17.308Z,4.15
2018-07-30T21:22:46.662Z,4.15
2018-07-30T21:25:16.016Z,4.65
2018-07-30T21:27:45.414Z,4.08
2018-07-30T21:30:14.783Z,4.28
2018-07-30T21:32:44.145Z,4.10
2018-07-30T21:35:13.237Z,4.05
2018-07-30T21:37:42.355Z,4.15
2018-07-30T21:40:11.715Z,3.90
2018-07-30T21:42:41.089Z,4.28
2018-07-30T21:45:10.440Z,4.60
2018-07-30T21:47:39.567Z,3.98
2018-07-30T21:50:08.948Z,4.40
2018-07-30T21:52:38.294Z,4.67
2018-07-30T21:55:07.690Z,4.12
2018-07-30T21:57:37.047Z,4.22
2018-07-30T22:00:10.619Z,4.28
2018-07-30T22:02:40.052Z,4.12
2018-07-30T22:05:14.792Z,4.75
2018-07-30T22:07:44.901Z,4.08
2018-07-30T22:10:14.270Z,4.13
2018-07-30T22:12:43.633Z,4.67
2018-07-30T22:15:13.012Z,4.27
2018-07-30T22:17:42.374Z,4.67
2018-07-30T22:20:11.745Z,4.25
2018-07-30T22:22:41.109Z,4.10
2018-07-30T22:25:10.479Z,4.43
2018-07-30T22:27:39.836Z,3.80
2018-07-30T22:30:10.723Z,4.40
2018-07-30T22:32:40.072Z,4.10
2018-07-30T22:35:09.872Z,4.13
2018-07-30T22:37:39.266Z,4.50
2018-07-30T22:40:09.499Z,3.90
2018-07-30T22:42:38.857Z,4.15
2018-07-30T22:45:08.261Z,4.07
2018-07-30T22:47:37.620Z,4.17
2018-07-30T22:50:06.974Z,4.03
2018-07-30T22:52:36.076Z,4.67
2018-07-30T22:55:05.540Z,4.43
2018-07-30T22:57:34.889Z,4.03
2018-07-30T23:00:05.678Z,4.70
2018-07-30T23:02:35.060Z,4.30
2018-07-30T23:05:04.885Z,4.17
2018-07-30T23:07:34.239Z,4.33
2018-07-30T23:10:03.631Z,4.40
2018-07-30T23:12:32.727Z,4.40
2018-07-30T23:15:02.105Z,4.37
2018-07-30T23:17:31.455Z,4.03
2018-07-30T23:20:00.814Z,4.63
2018-07-30T23:22:30.166Z,4.70
2018-07-30T23:24:59.519Z,4.30
2018-07-30T23:27:28.636Z,4.43
2018-07-30T23:29:58.028Z,4.70
2018-07-30T23:32:27.213Z,4.47
2018-07-30T23:34:56.571Z,4.43
2018-07-30T23:37:26.074Z,4.40
2018-07-30T23:39:55.259Z,4.53
2018-07-30T23:42:24.602Z,4.60
2018-07-30T23:44:53.955Z,4.70
2018-07-30T23:47:23.303Z,4.03
2018-07-30T23:49:52.657Z,4.40
2018-07-30T23:52:22.006Z,3.87
2018-07-30T23:54:51.358Z,4.77
2018-07-30T23:57:20.708Z,4.80
2018-07-30T23:59:50.047Z,5.10
